createdAt,value
2018-11-11T00:00:11.364Z,100.00
2018-11-11T00:02:40.023Z,100.00
2018-11-11T00:05:09.583Z,100.00
2018-11-11T00:07:38.446Z,100.00
2018-11-11T00:10:07.099Z,100.00
2018-11-11T00:12:35.981Z,100.00
2018-11-11T00:15:04.970Z,100.00
2018-11-11T00:17:33.706Z,100.00
2018-11-11T00:20:02.270Z,100.00
2018-11-11T00:22:30.793Z,100.00
2018-11-11T00:24:59.508Z,100.00
2018-11-11T00:27:27.971Z,100.00
2018-11-11T00:29:56.788Z,100.00
2018-11-11T00:32:25.253Z,100.00
2018-11-11T00:34:54.125Z,100.00
2018-11-11T00:37:22.614Z,100.00
2018-11-11T00:39:51.135Z,99.95
2018-11-11T00:42:20.555Z,99.97
2018-11-11T00:44:49.079Z,99.79
2018-11-11T00:47:17.754Z,99.97
2018-11-11T00:49:46.282Z,100.00
2018-11-11T00:52:15.074Z,100.00
2018-11-11T00:54:43.539Z,100.00
2018-11-11T00:57:12.521Z,100.00
2018-11-11T00:59:41.025Z,100.00
2018-11-11T01:02:09.520Z,100.00
2018-11-11T01:04:37.994Z,99.83
2018-11-11T01:07:06.626Z,99.56
2018-11-11T01:09:35.475Z,99.81
2018-11-11T01:12:04.027Z,99.81
2018-11-11T01:14:32.788Z,99.64
2018-11-11T01:17:01.246Z,99.72
2018-11-11T01:19:29.859Z,99.77
2018-11-11T01:21:58.337Z,100.00
2018-11-11T01:24:26.845Z,99.75
2018-11-11T01:26:55.511Z,99.76
2018-11-11T01:29:24.030Z,99.77
2018-11-11T01:31:52.886Z,99.67
2018-11-11T01:34:21.371Z,99.93
2018-11-11T01:36:49.985Z,99.80
2018-11-11T01:39:18.528Z,99.85
2018-11-11T01:41:47.047Z,99.89
2018-11-11T01:44:15.881Z,99.71
2018-11-11T01:46:44.482Z,99.73
2018-11-11T01:49:13.151Z,99.88
2018-11-11T01:51:41.726Z,99.68
2018-11-11T01:54:10.292Z,99.98
2018-11-11T01:56:38.915Z,99.82
2018-11-11T01:59:07.461Z,99.70
2018-11-11T02:01:36.183Z,99.81
2018-11-11T02:04:05.017Z,99.82
2018-11-11T02:06:33.772Z,99.93
2018-11-11T02:09:02.271Z,99.64
2018-11-11T02:11:30.950Z,99.73
2018-11-11T02:13:59.509Z,99.62
2018-11-11T02:16:28.002Z,99.92
2018-11-11T02:18:56.506Z,99.71
2018-11-11T02:21:25.156Z,99.68
2018-11-11T02:23:53.854Z,99.82
2018-11-11T02:26:22.335Z,99.55
2018-11-11T02:28:51.209Z,99.54
2018-11-11T02:31:19.672Z,99.38
2018-11-11T02:33:48.199Z,99.59
2018-11-11T02:36:16.774Z,99.37
2018-11-11T02:38:45.255Z,99.33
2018-11-11T02:41:14.083Z,99.36
2018-11-11T02:43:42.603Z,99.47
2018-11-11T02:46:11.550Z,99.46
2018-11-11T02:48:40.015Z,99.43
2018-11-11T02:51:08.601Z,99.57
2018-11-11T02:53:37.191Z,99.92
2018-11-11T02:56:06.399Z,99.80
2018-11-11T02:58:35.159Z,99.61
2018-11-11T03:01:03.705Z,99.46
2018-11-11T03:03:32.621Z,99.54
2018-11-11T03:06:01.126Z,99.57
2018-11-11T03:08:29.726Z,99.56
2018-11-11T03:10:58.246Z,99.61
2018-11-11T03:13:26.794Z,99.41
2018-11-11T03:15:55.330Z,99.58
2018-11-11T03:18:23.814Z,99.80
2018-11-11T03:20:52.676Z,99.61
2018-11-11T03:23:21.223Z,99.33
2018-11-11T03:25:50.059Z,99.90
2018-11-11T03:28:18.559Z,100.00
2018-11-11T03:30:47.246Z,100.00
2018-11-11T03:33:15.797Z,100.00
2018-11-11T03:35:44.322Z,100.00
2018-11-11T03:38:12.963Z,100.00
2018-11-11T03:40:41.450Z,100.00
2018-11-11T03:43:10.359Z,100.00
2018-11-11T03:45:38.836Z,100.00
2018-11-11T03:48:07.475Z,100.00
2018-11-11T03:50:36.023Z,100.00
2018-11-11T03:53:04.609Z,100.00
2018-11-11T03:55:33.208Z,100.00
2018-11-11T03:58:01.822Z,100.00
2018-11-11T04:00:30.691Z,100.00
2018-11-11T04:02:59.251Z,100.00
2018-11-11T04:05:28.099Z,100.00
2018-11-11T04:07:56.568Z,100.00
2018-11-11T04:10:25.227Z,100.00
2018-11-11T04:12:53.687Z,100.00
2018-11-11T04:15:22.158Z,100.00
2018-11-11T04:17:50.915Z,100.00
2018-11-11T04:20:20.504Z,100.00
2018-11-11T04:22:49.602Z,100.00
2018-11-11T04:25:18.639Z,100.00
2018-11-11T04:27:47.463Z,100.00
2018-11-11T04:30:16.262Z,100.00
2018-11-11T04:32:44.822Z,100.00
2018-11-11T04:35:13.710Z,100.00
2018-11-11T04:37:42.277Z,100.00
2018-11-11T04:40:12.070Z,100.00
2018-11-11T04:42:40.634Z,100.00
2018-11-11T04:45:12.733Z,99.89
2018-11-11T04:47:41.335Z,100.00
2018-11-11T04:50:11.751Z,99.93
2018-11-11T04:52:40.306Z,100.00
2018-11-11T04:55:09.661Z,100.00
2018-11-11T04:57:38.306Z,100.00
2018-11-11T05:00:08.486Z,100.00
2018-11-11T05:02:37.119Z,100.00
2018-11-11T05:05:06.514Z,99.91
2018-11-11T05:07:34.986Z,100.00
2018-11-11T05:10:04.150Z,100.00
2018-11-11T05:12:32.631Z,100.00
2018-11-11T05:15:01.524Z,100.00
2018-11-11T05:17:30.050Z,100.00
2018-11-11T05:19:58.547Z,100.00
2018-11-11T05:22:27.325Z,100.00
2018-11-11T05:24:55.832Z,100.00
2018-11-11T05:27:24.551Z,100.00
2018-11-11T05:29:53.023Z,100.00
2018-11-11T05:32:21.716Z,100.00
2018-11-11T05:34:50.207Z,100.00
2018-11-11T05:37:18.730Z,100.00
2018-11-11T05:39:47.300Z,100.00
2018-11-11T05:42:15.829Z,100.00
2018-11-11T05:44:44.576Z,100.00
2018-11-11T05:47:13.151Z,100.00
2018-11-11T05:49:41.975Z,100.00
2018-11-11T05:52:10.450Z,100.00
2018-11-11T05:54:39.062Z,100.00
2018-11-11T05:57:07.661Z,100.00
2018-11-11T05:59:36.160Z,100.00
2018-11-11T06:02:05.139Z,100.00
2018-11-11T06:04:33.810Z,100.00
2018-11-11T06:07:02.606Z,100.00
2018-11-11T06:09:31.088Z,100.00
2018-11-11T06:11:59.738Z,100.00
2018-11-11T06:14:28.218Z,100.00
2018-11-11T06:16:56.850Z,100.00
2018-11-11T06:19:25.550Z,100.00
2018-11-11T06:21:54.314Z,100.00
2018-11-11T06:24:23.203Z,100.00
2018-11-11T06:26:51.822Z,100.00
2018-11-11T06:29:20.891Z,100.00
2018-11-11T06:31:49.640Z,100.00
2018-11-11T06:34:18.483Z,100.00
2018-11-11T06:36:48.154Z,100.00
2018-11-11T06:39:16.980Z,100.00
2018-11-11T06:41:45.524Z,100.00
2018-11-11T06:44:14.190Z,100.00
2018-11-11T06:46:43.332Z,100.00
2018-11-11T06:49:11.943Z,100.00
2018-11-11T06:51:41.317Z,100.00
2018-11-11T06:54:10.003Z,100.00
2018-11-11T06:56:39.028Z,100.00
2018-11-11T06:59:07.691Z,100.00
2018-11-11T07:01:36.483Z,100.00
2018-11-11T07:04:05.373Z,100.00
2018-11-11T07:06:34.282Z,100.00
2018-11-11T07:09:03.301Z,100.00
2018-11-11T07:11:31.819Z,100.00
2018-11-11T07:14:01.181Z,100.00
2018-11-11T07:16:29.698Z,100.00
2018-11-11T07:18:59.256Z,100.00
2018-11-11T07:21:27.807Z,100.00
2018-11-11T07:23:56.974Z,100.00
2018-11-11T07:26:25.884Z,100.00
2018-11-11T07:28:54.622Z,100.00
2018-11-11T07:31:23.202Z,100.00
2018-11-11T07:33:51.710Z,100.00
2018-11-11T07:36:21.114Z,99.69
2018-11-11T07:38:49.587Z,99.65
2018-11-11T07:41:18.378Z,99.63
2018-11-11T07:43:46.875Z,100.00
2018-11-11T07:46:15.770Z,99.49
2018-11-11T07:48:44.408Z,99.75
2018-11-11T07:51:13.025Z,99.80
2018-11-11T07:53:41.507Z,99.87
2018-11-11T07:56:10.086Z,99.88
2018-11-11T07:58:39.004Z,99.93
2018-11-11T08:01:08.040Z,100.00
2018-11-11T08:03:37.225Z,100.00
2018-11-11T08:06:06.331Z,99.83
2018-11-11T08:08:35.282Z,99.93
2018-11-11T08:11:14.848Z,100.00
2018-11-11T08:13:43.364Z,99.86
2018-11-11T08:16:12.930Z,99.94
2018-11-11T08:18:44.761Z,99.86
2018-11-11T08:21:14.181Z,99.84
2018-11-11T08:23:43.046Z,99.83
2018-11-11T08:26:11.715Z,99.86
2018-11-11T08:28:40.310Z,100.00
2018-11-11T08:31:08.850Z,99.95
2018-11-11T08:33:37.640Z,99.94
2018-11-11T08:36:06.426Z,99.93
2018-11-11T08:38:35.120Z,99.71
2018-11-11T08:41:04.151Z,100.00
2018-11-11T08:43:32.615Z,99.95
2018-11-11T08:46:01.397Z,100.00
2018-11-11T08:48:29.975Z,100.00
2018-11-11T08:50:58.479Z,99.89
2018-11-11T08:53:27.226Z,99.36
2018-11-11T08:55:55.776Z,100.00
2018-11-11T08:58:24.632Z,100.00
2018-11-11T09:00:53.136Z,99.97
2018-11-11T09:03:21.738Z,100.00
2018-11-11T09:05:50.261Z,100.00
2018-11-11T09:08:18.855Z,100.00
2018-11-11T09:10:47.339Z,100.00
2018-11-11T09:13:15.819Z,100.00
2018-11-11T09:15:44.787Z,100.00
2018-11-11T09:18:13.353Z,100.00
2018-11-11T09:20:42.403Z,100.00
2018-11-11T09:23:10.891Z,100.00
2018-11-11T09:25:39.531Z,100.00
2018-11-11T09:28:08.202Z,100.00
2018-11-11T09:30:36.847Z,100.00
2018-11-11T09:33:06.084Z,100.00
2018-11-11T09:35:34.667Z,100.00
2018-11-11T09:38:03.766Z,100.00
2018-11-11T09:40:32.345Z,100.00
2018-11-11T09:43:01.105Z,100.00
2018-11-11T09:45:29.706Z,100.00
2018-11-11T09:47:58.409Z,100.00
2018-11-11T09:50:26.926Z,100.00
2018-11-11T09:52:55.407Z,100.00
2018-11-11T09:55:24.328Z,100.00
2018-11-11T09:57:52.816Z,100.00
2018-11-11T10:00:22.646Z,100.00
2018-11-11T10:02:57.915Z,100.00
2018-11-11T10:05:33.617Z,100.00
2018-11-11T10:09:05.633Z,99.96
2018-11-11T10:11:38.790Z,100.00
2018-11-11T10:14:08.855Z,100.00
2018-11-11T10:16:50.488Z,99.95
2018-11-11T10:19:25.452Z,100.00
2018-11-11T10:23:02.541Z,99.81
2018-11-11T10:27:41.665Z,100.00
2018-11-11T10:31:17.967Z,100.00
2018-11-11T10:33:53.602Z,100.00
2018-11-11T10:36:42.771Z,100.00
2018-11-11T10:39:17.243Z,100.00
2018-11-11T10:41:57.124Z,100.00
2018-11-11T10:45:03.295Z,100.00
2018-11-11T10:48:35.706Z,100.00
2018-11-11T10:51:05.823Z,100.00
2018-11-11T10:53:34.326Z,100.00
2018-11-11T10:56:03.171Z,100.00
2018-11-11T10:58:31.655Z,100.00
2018-11-11T11:01:05.300Z,100.00
2018-11-11T11:03:35.071Z,100.00
2018-11-11T11:06:04.363Z,100.00
2018-11-11T11:08:33.143Z,100.00
2018-11-11T11:11:01.817Z,100.00
2018-11-11T11:13:30.756Z,100.00
2018-11-11T11:15:59.815Z,100.00
2018-11-11T11:18:28.470Z,100.00
2018-11-11T11:20:57.188Z,100.00
2018-11-11T11:23:25.663Z,100.00
2018-11-11T11:25:54.343Z,100.00
2018-11-11T11:28:22.819Z,100.00
2018-11-11T11:30:51.361Z,100.00
2018-11-11T11:33:20.170Z,100.00
2018-11-11T11:35:48.739Z,100.00
2018-11-11T11:38:17.568Z,100.00
2018-11-11T11:40:46.140Z,100.00
2018-11-11T11:43:14.892Z,100.00
2018-11-11T11:45:43.470Z,100.00
2018-11-11T11:48:12.078Z,100.00
2018-11-11T11:50:40.722Z,100.00
2018-11-11T11:53:09.231Z,100.00
2018-11-11T11:55:37.919Z,100.00
2018-11-11T11:58:14.546Z,100.00
2018-11-11T12:00:43.391Z,100.00
2018-11-11T12:03:12.397Z,100.00
2018-11-11T12:05:41.045Z,100.00
2018-11-11T12:08:09.807Z,100.00
2018-11-11T12:10:38.320Z,100.00
2018-11-11T12:13:07.390Z,100.00
2018-11-11T12:15:36.149Z,100.00
2018-11-11T12:18:04.708Z,100.00
2018-11-11T12:20:33.604Z,99.91
2018-11-11T12:23:02.236Z,99.91
2018-11-11T12:25:31.106Z,99.84
2018-11-11T12:27:59.723Z,99.95
2018-11-11T12:30:28.582Z,99.77
2018-11-11T12:32:57.075Z,99.88
2018-11-11T12:35:25.584Z,100.00
2018-11-11T12:37:54.198Z,100.00
2018-11-11T12:40:22.783Z,99.80
2018-11-11T12:42:51.703Z,99.77
2018-11-11T12:45:20.251Z,99.80
2018-11-11T12:47:48.943Z,100.00
2018-11-11T12:50:17.612Z,99.99
2018-11-11T12:52:46.359Z,99.84
2018-11-11T12:55:15.207Z,99.96
2018-11-11T12:57:43.691Z,100.00
2018-11-11T13:00:13.843Z,100.00
2018-11-11T13:02:42.380Z,99.93
2018-11-11T13:05:11.690Z,100.00
2018-11-11T13:07:40.247Z,99.63
2018-11-11T13:10:12.291Z,99.91
2018-11-11T13:12:40.967Z,99.83
2018-11-11T13:15:11.216Z,99.93
2018-11-11T13:17:40.279Z,99.91
2018-11-11T13:20:11.423Z,99.76
2018-11-11T13:22:40.172Z,100.00
2018-11-11T13:25:09.762Z,100.00
2018-11-11T13:27:38.626Z,99.93
2018-11-11T13:30:08.903Z,99.85
2018-11-11T13:32:37.603Z,99.88
2018-11-11T13:35:07.527Z,99.94
2018-11-11T13:37:36.070Z,99.93
2018-11-11T13:40:06.234Z,99.90
2018-11-11T13:42:34.788Z,99.81
2018-11-11T13:45:03.329Z,99.82
2018-11-11T13:47:31.887Z,99.71
2018-11-11T13:50:00.627Z,99.61
2018-11-11T13:52:29.256Z,99.83
2018-11-11T13:54:57.941Z,99.50
2018-11-11T13:57:26.505Z,99.83
2018-11-11T13:59:55.059Z,99.75
2018-11-11T14:02:23.729Z,99.79
2018-11-11T14:04:52.312Z,100.00
2018-11-11T14:07:21.202Z,99.93
2018-11-11T14:09:49.694Z,100.00
2018-11-11T14:12:18.475Z,100.00
2018-11-11T14:14:46.972Z,100.00
2018-11-11T14:17:15.527Z,100.00
2018-11-11T14:19:44.106Z,100.00
2018-11-11T14:22:12.705Z,100.00
2018-11-11T14:24:41.518Z,100.00
2018-11-11T14:27:09.947Z,100.00
2018-11-11T14:29:38.642Z,100.00
2018-11-11T14:32:07.259Z,100.00
2018-11-11T14:34:35.841Z,100.00
2018-11-11T14:37:04.366Z,100.00
2018-11-11T14:39:32.857Z,100.00
2018-11-11T14:42:01.543Z,100.00
2018-11-11T14:44:30.067Z,100.00
2018-11-11T14:46:58.953Z,100.00
2018-11-11T14:49:27.427Z,100.00
2018-11-11T14:51:56.069Z,100.00
2018-11-11T14:54:24.892Z,100.00
2018-11-11T14:56:53.775Z,100.00
2018-11-11T14:59:22.777Z,100.00
2018-11-11T15:01:51.271Z,100.00
2018-11-11T15:04:20.274Z,100.00
2018-11-11T15:06:48.770Z,100.00
2018-11-11T15:09:17.864Z,100.00
2018-11-11T15:11:46.384Z,100.00
2018-11-11T15:14:15.200Z,100.00
2018-11-11T15:16:43.795Z,100.00
2018-11-11T15:19:12.538Z,100.00
2018-11-11T15:21:41.512Z,100.00
2018-11-11T15:24:10.102Z,100.00
2018-11-11T15:26:39.232Z,100.00
2018-11-11T15:29:07.935Z,100.00
2018-11-11T15:31:36.827Z,100.00
2018-11-11T15:34:05.890Z,100.00
2018-11-11T15:36:34.655Z,100.00
2018-11-11T15:39:03.299Z,100.00
2018-11-11T15:41:32.013Z,100.00
2018-11-11T15:44:00.519Z,100.00
2018-11-11T15:46:29.042Z,100.00
2018-11-11T15:48:57.917Z,100.00
2018-11-11T15:51:26.394Z,100.00
2018-11-11T15:53:55.335Z,100.00
2018-11-11T15:56:23.887Z,100.00
2018-11-11T15:58:52.515Z,100.00
2018-11-11T16:01:21.092Z,100.00
2018-11-11T16:03:50.188Z,100.00
2018-11-11T16:06:18.815Z,100.00
2018-11-11T16:08:47.318Z,100.00
2018-11-11T16:11:16.077Z,100.00
2018-11-11T16:13:44.543Z,100.00
2018-11-11T16:16:13.392Z,100.00
2018-11-11T16:18:41.999Z,100.00
2018-11-11T16:21:10.483Z,100.00
2018-11-11T16:23:39.393Z,100.00
2018-11-11T16:26:07.900Z,100.00
2018-11-11T16:28:36.695Z,100.00
2018-11-11T16:31:05.677Z,100.00
2018-11-11T16:33:34.689Z,100.00
2018-11-11T16:36:03.331Z,100.00
2018-11-11T16:38:32.155Z,100.00
2018-11-11T16:41:00.881Z,100.00
2018-11-11T16:43:29.656Z,100.00
2018-11-11T16:45:58.503Z,100.00
2018-11-11T16:48:26.972Z,100.00
2018-11-11T16:50:56.191Z,100.00
2018-11-11T16:53:24.754Z,100.00
2018-11-11T16:55:53.670Z,100.00
2018-11-11T16:58:22.146Z,100.00
2018-11-11T17:00:50.943Z,100.00
2018-11-11T17:03:19.424Z,100.00
2018-11-11T17:05:48.106Z,100.00
2018-11-11T17:08:16.763Z,100.00
2018-11-11T17:10:45.292Z,100.00
2018-11-11T17:13:15.055Z,100.00
2018-11-11T17:15:43.639Z,100.00
2018-11-11T17:18:12.554Z,100.00
2018-11-11T17:20:41.239Z,100.00
2018-11-11T17:23:10.084Z,100.00
2018-11-11T17:25:38.731Z,100.00
2018-11-11T17:28:07.512Z,100.00
2018-11-11T17:30:36.067Z,100.00
2018-11-11T17:33:04.984Z,100.00
2018-11-11T17:35:33.479Z,100.00
2018-11-11T17:38:02.009Z,100.00
2018-11-11T17:40:31.459Z,100.00
2018-11-11T17:43:00.661Z,100.00
2018-11-11T17:45:29.611Z,100.00
2018-11-11T17:47:58.347Z,100.00
2018-11-11T17:50:30.328Z,100.00
2018-11-11T17:52:59.526Z,100.00
2018-11-11T17:55:28.702Z,100.00
2018-11-11T17:57:57.138Z,100.00
2018-11-11T18:00:27.184Z,100.00
2018-11-11T18:02:56.445Z,100.00
2018-11-11T18:05:26.527Z,100.00
2018-11-11T18:07:55.127Z,100.00
2018-11-11T18:10:24.732Z,100.00
2018-11-11T18:12:53.296Z,100.00
2018-11-11T18:15:23.599Z,100.00
2018-11-11T18:17:52.079Z,100.00
2018-11-11T18:20:22.123Z,100.00
2018-11-11T18:22:51.505Z,100.00
2018-11-11T18:25:20.471Z,100.00
2018-11-11T18:27:49.034Z,100.00
2018-11-11T18:30:22.144Z,100.00
2018-11-11T18:32:50.787Z,100.00
2018-11-11T18:35:20.567Z,100.00
2018-11-11T18:37:49.093Z,100.00
2018-11-11T18:40:19.367Z,100.00
2018-11-11T18:42:47.880Z,100.00
2018-11-11T18:45:17.977Z,100.00
2018-11-11T18:47:47.318Z,100.00
2018-11-11T18:50:18.510Z,100.00
2018-11-11T18:52:47.124Z,100.00
2018-11-11T18:55:15.953Z,100.00
2018-11-11T18:57:45.058Z,100.00
2018-11-11T19:00:18.255Z,100.00
2018-11-11T19:02:47.978Z,100.00
2018-11-11T19:05:17.467Z,100.00
2018-11-11T19:07:46.316Z,100.00
2018-11-11T19:10:16.683Z,100.00
2018-11-11T19:12:46.507Z,100.00
2018-11-11T19:15:16.074Z,100.00
2018-11-11T19:17:45.411Z,100.00
2018-11-11T19:20:15.254Z,100.00
2018-11-11T19:22:44.079Z,100.00
2018-11-11T19:25:14.674Z,100.00
2018-11-11T19:27:45.188Z,100.00
2018-11-11T19:30:14.737Z,100.00
2018-11-11T19:32:44.769Z,100.00
2018-11-11T19:35:14.606Z,100.00
2018-11-11T19:37:51.593Z,100.00
2018-11-11T19:40:21.707Z,100.00
2018-11-11T19:42:51.223Z,100.00
2018-11-11T19:45:21.485Z,100.00
2018-11-11T19:47:50.809Z,100.00
2018-11-11T19:50:20.862Z,100.00
2018-11-11T19:52:51.160Z,100.00
2018-11-11T19:55:20.491Z,100.00
2018-11-11T19:57:49.718Z,100.00
2018-11-11T20:00:23.573Z,100.00
2018-11-11T20:02:53.034Z,100.00
2018-11-11T20:05:21.991Z,100.00
2018-11-11T20:07:51.891Z,100.00
2018-11-11T20:10:21.152Z,100.00
2018-11-11T20:12:49.754Z,100.00
2018-11-11T20:15:23.143Z,100.00
2018-11-11T20:17:51.641Z,100.00
2018-11-11T20:20:21.599Z,100.00
2018-11-11T20:22:50.404Z,100.00
2018-11-11T20:25:20.048Z,100.00
2018-11-11T20:27:48.900Z,100.00
2018-11-11T20:30:19.672Z,100.00
2018-11-11T20:32:48.207Z,100.00
2018-11-11T20:35:21.049Z,100.00
2018-11-11T20:37:49.562Z,100.00
2018-11-11T20:40:19.872Z,100.00
2018-11-11T20:42:48.812Z,100.00
2018-11-11T20:45:19.180Z,100.00
2018-11-11T20:47:48.475Z,100.00
2018-11-11T20:50:18.595Z,100.00
2018-11-11T20:52:48.291Z,100.00
2018-11-11T20:55:17.835Z,100.00
2018-11-11T20:57:46.347Z,100.00
2018-11-11T21:00:17.791Z,100.00
2018-11-11T21:02:46.311Z,100.00
2018-11-11T21:05:16.460Z,100.00
2018-11-11T21:07:45.143Z,100.00
2018-11-11T21:10:16.112Z,100.00
2018-11-11T21:12:44.717Z,100.00
2018-11-11T21:15:14.602Z,100.00
2018-11-11T21:17:43.663Z,100.00
2018-11-11T21:20:14.816Z,100.00
2018-11-11T21:22:43.586Z,100.00
2018-11-11T21:25:12.480Z,100.00
2018-11-11T21:27:42.037Z,100.00
2018-11-11T21:30:13.174Z,100.00
2018-11-11T21:32:41.862Z,100.00
2018-11-11T21:35:10.988Z,100.00
2018-11-11T21:37:39.613Z,100.00
2018-11-11T21:40:11.235Z,100.00
2018-11-11T21:42:40.708Z,100.00
2018-11-11T21:45:11.067Z,100.00
2018-11-11T21:47:40.208Z,100.00
2018-11-11T21:50:11.200Z,100.00
2018-11-11T21:52:40.036Z,100.00
2018-11-11T21:55:09.029Z,100.00
2018-11-11T21:57:37.890Z,100.00
2018-11-11T22:00:09.413Z,100.00
2018-11-11T22:02:38.098Z,100.00
2018-11-11T22:05:08.346Z,100.00
2018-11-11T22:07:37.576Z,100.00
2018-11-11T22:10:08.067Z,100.00
2018-11-11T22:12:36.693Z,100.00
2018-11-11T22:15:06.355Z,100.00
2018-11-11T22:17:35.189Z,100.00
2018-11-11T22:20:03.843Z,100.00
2018-11-11T22:22:32.679Z,100.00
2018-11-11T22:25:01.154Z,100.00
2018-11-11T22:27:29.766Z,100.00
2018-11-11T22:29:58.271Z,100.00
2018-11-11T22:32:26.835Z,100.00
2018-11-11T22:34:55.535Z,100.00
2018-11-11T22:37:24.154Z,100.00
2018-11-11T22:39:52.991Z,100.00
2018-11-11T22:42:21.527Z,100.00
2018-11-11T22:44:50.540Z,100.00
2018-11-11T22:47:19.095Z,100.00
2018-11-11T22:49:47.576Z,100.00
2018-11-11T22:52:16.163Z,100.00
2018-11-11T22:54:44.765Z,100.00
2018-11-11T22:57:13.696Z,100.00
2018-11-11T23:02:02.515Z,100.00
2018-11-11T23:04:31.122Z,100.00
2018-11-11T23:06:59.602Z,100.00
2018-11-11T23:09:28.154Z,100.00
2018-11-11T23:11:56.895Z,100.00
2018-11-11T23:14:25.383Z,100.00
2018-11-11T23:16:54.254Z,100.00
2018-11-11T23:19:22.812Z,100.00
2018-11-11T23:21:51.418Z,100.00
2018-11-11T23:24:19.991Z,100.00
2018-11-11T23:26:48.466Z,100.00
2018-11-11T23:29:17.294Z,100.00
2018-11-11T23:31:45.781Z,100.00
2018-11-11T23:34:14.610Z,100.00
2018-11-11T23:36:43.080Z,100.00
2018-11-11T23:39:11.896Z,100.00
2018-11-11T23:41:40.399Z,100.00
2018-11-11T23:44:09.699Z,100.00
2018-11-11T23:46:38.930Z,100.00
2018-11-11T23:49:08.188Z,100.00
2018-11-11T23:51:37.082Z,100.00
2018-11-11T23:54:05.957Z,100.00
2018-11-11T23:56:34.884Z,100.00
2018-11-11T23:59:03.370Z,100.00
